Time;durP1;ratioP1;P1;durP2;ratioP2;P2;SDS_P1;SDS_P2;PMS_P1;PMS_P2;Temp;Humidity;BMP_temperature;BMP_pressure;BME280_temperature;BME280_humidity;BME280_pressure;Samples;Min_cycle;Max_cycle;Signal;HPM_P1;HPM_P2
2023/06/20 00:00:10;;;;;;;20.67;18.80;;;23.20;99.90;;;;;;5053140;28;20490;-76
2023/06/20 00:02:38;;;;;;;21.40;19.80;;;23.20;99.90;;;;;;5053185;28;20464;-76
2023/06/20 00:05:05;;;;;;;19.33;17.80;;;23.10;99.90;;;;;;5052605;28;20514;-77
2023/06/20 00:07:35;;;;;;;19.20;17.67;;;23.10;99.90;;;;;;5053381;28;20491;-77
2023/06/20 00:10:02;;;;;;;19.87;18.40;;;23.10;99.90;;;;;;5042248;28;20479;-77
2023/06/20 00:12:29;;;;;;;18.10;16.80;;;23.10;99.90;;;;;;5036492;28;20957;-78
2023/06/20 00:14:58;;;;;;;18.63;17.23;;;23.10;99.90;;;;;;5050157;28;20474;-77
2023/06/20 00:17:26;;;;;;;19.40;17.90;;;23.00;99.90;;;;;;5052564;28;20475;-77
2023/06/20 00:19:53;;;;;;;18.37;16.77;;;23.00;99.90;;;;;;5052677;28;20495;-77
2023/06/20 00:22:20;;;;;;;18.10;16.80;;;23.00;99.90;;;;;;5052355;28;20481;-77
2023/06/20 00:24:47;;;;;;;18.93;17.53;;;23.00;99.90;;;;;;5052623;28;20468;-76
2023/06/20 00:27:15;;;;;;;16.77;15.57;;;23.00;99.90;;;;;;5050947;28;20463;-77
2023/06/20 00:29:42;;;;;;;17.10;15.80;;;22.90;99.90;;;;;;5053251;28;20806;-76
2023/06/20 00:32:11;;;;;;;17.87;16.57;;;23.00;99.90;;;;;;5052293;28;20816;-76
2023/06/20 00:34:38;;;;;;;19.07;17.57;;;22.90;99.90;;;;;;5051381;28;20536;-78
2023/06/20 00:37:05;;;;;;;18.77;17.37;;;22.90;99.90;;;;;;5051929;28;20798;-77
2023/06/20 00:39:34;;;;;;;17.23;16.00;;;22.90;99.90;;;;;;5055298;28;20466;-77
2023/06/20 00:42:05;;;;;;;19.77;18.33;;;22.90;99.90;;;;;;5056830;28;20805;-78
2023/06/20 00:44:32;;;;;;;17.60;16.40;;;22.90;99.90;;;;;;5056390;28;20529;-77
2023/06/20 00:46:59;;;;;;;18.80;17.40;;;22.90;99.90;;;;;;5056946;28;20482;-78
2023/06/20 00:49:28;;;;;;;18.17;16.87;;;22.90;99.90;;;;;;5056392;28;20479;-77
2023/06/20 00:51:55;;;;;;;17.60;16.30;;;22.90;99.90;;;;;;5057397;28;20771;-77
2023/06/20 00:54:22;;;;;;;18.50;17.00;;;22.80;99.90;;;;;;5053172;28;20471;-77
2023/06/20 00:56:50;;;;;;;19.03;17.63;;;22.80;99.90;;;;;;5057453;28;20474;-77
2023/06/20 00:59:19;;;;;;;20.17;18.67;;;22.80;99.90;;;;;;5043272;28;20472;-75
2023/06/20 01:01:46;;;;;;;22.60;20.83;;;22.80;99.90;;;;;;5056739;28;20952;-78
2023/06/20 01:04:21;;;;;;;21.77;19.87;;;22.80;99.90;;;;;;5056714;28;20525;-78
2023/06/20 01:07:09;;;;;;;21.20;19.70;;;22.80;99.90;;;;;;5045365;28;20602;-77
2023/06/20 01:09:49;;;;;;;18.93;17.43;;;22.80;99.90;;;;;;5054908;28;20471;-77
2023/06/20 01:12:22;;;;;;;21.13;19.53;;;22.80;99.90;;;;;;5054778;28;20485;-77
2023/06/20 01:15:01;;;;;;;21.53;19.80;;;22.80;99.90;;;;;;5055089;28;20457;-76
2023/06/20 01:17:37;;;;;;;21.57;19.77;;;22.80;99.90;;;;;;5037874;28;20531;-77
2023/06/20 01:20:12;;;;;;;18.73;17.33;;;22.80;99.90;;;;;;5037327;28;20468;-77
2023/06/20 01:23:04;;;;;;;20.10;18.60;;;22.80;99.90;;;;;;5035865;28;20455;-77
2023/06/20 01:25:39;;;;;;;18.53;17.10;;;22.80;99.90;;;;;;5034945;28;20465;-77
2023/06/20 01:28:10;;;;;;;21.50;19.90;;;22.80;99.90;;;;;;5036016;28;20517;-77
2023/06/20 01:30:43;;;;;;;21.43;19.63;;;22.80;99.90;;;;;;5035092;28;20510;-77
2023/06/20 01:33:14;;;;;;;20.70;19.17;;;22.80;99.90;;;;;;5035825;28;20478;-77
2023/06/20 01:35:42;;;;;;;18.40;17.00;;;22.80;99.90;;;;;;5035977;28;20460;-77
2023/06/20 01:38:14;;;;;;;19.43;18.00;;;22.80;99.90;;;;;;5035778;28;20468;-76
2023/06/20 01:40:48;;;;;;;18.63;17.33;;;22.80;99.90;;;;;;5035797;28;20805;-76
2023/06/20 01:43:20;;;;;;;17.03;15.83;;;22.80;99.90;;;;;;5035193;28;20992;-76
2023/06/20 01:45:50;;;;;;;17.03;15.73;;;22.80;99.90;;;;;;5034217;28;20464;-76
2023/06/20 01:48:23;;;;;;;16.03;14.93;;;22.80;99.90;;;;;;5025686;28;20472;-78
2023/06/20 01:50:53;;;;;;;18.47;17.10;;;22.80;99.90;;;;;;5033808;28;20470;-76
2023/06/20 01:53:23;;;;;;;16.77;15.57;;;22.70;99.90;;;;;;5035118;28;20464;-76
2023/06/20 01:55:53;;;;;;;18.93;17.53;;;22.70;99.90;;;;;;5035251;28;20475;-77
2023/06/20 01:58:21;;;;;;;17.83;16.63;;;22.70;99.90;;;;;;5035701;28;20473;-77
2023/06/20 02:00:49;;;;;;;17.97;16.67;;;22.70;99.90;;;;;;5035522;28;20470;-77
2023/06/20 02:03:17;;;;;;;17.77;16.37;;;22.60;99.90;;;;;;5035195;28;20476;-76
2023/06/20 02:05:50;;;;;;;18.83;17.53;;;22.60;99.90;;;;;;5034242;28;20476;-77
2023/06/20 02:08:19;;;;;;;17.73;16.50;;;22.60;99.90;;;;;;5035165;28;20468;-78
2023/06/20 02:10:49;;;;;;;19.00;17.60;;;22.60;99.90;;;;;;5035146;28;20590;-76
2023/06/20 02:13:16;;;;;;;19.80;18.30;;;22.60;99.90;;;;;;5035438;28;20867;-75
2023/06/20 02:15:45;;;;;;;19.53;18.13;;;22.60;99.90;;;;;;5034525;28;20530;-77
2023/06/20 02:18:12;;;;;;;20.50;18.90;;;22.50;99.90;;;;;;5035882;28;20464;-76
2023/06/20 02:20:39;;;;;;;18.77;17.37;;;22.50;99.90;;;;;;5034899;28;20526;-77
2023/06/20 02:23:09;;;;;;;20.23;18.70;;;22.50;99.90;;;;;;5035239;28;20468;-77
2023/06/20 02:25:39;;;;;;;18.40;17.10;;;22.50;99.90;;;;;;5034787;28;20476;-76
2023/06/20 02:28:09;;;;;;;21.90;20.03;;;22.50;99.90;;;;;;5035000;28;20526;-78
2023/06/20 02:30:38;;;;;;;20.93;19.30;;;22.50;99.90;;;;;;5034335;28;20468;-77
2023/06/20 02:33:09;;;;;;;20.40;18.90;;;22.50;99.90;;;;;;5025348;28;20843;-78
2023/06/20 02:35:40;;;;;;;22.00;20.20;;;22.50;99.90;;;;;;5033787;28;20476;-78
2023/06/20 02:38:10;;;;;;;18.33;16.93;;;22.40;99.90;;;;;;5035076;28;20464;-76
2023/06/20 02:40:37;;;;;;;19.43;18.00;;;22.40;99.90;;;;;;5034754;28;20472;-78
2023/06/20 02:43:06;;;;;;;18.47;16.97;;;22.40;99.90;;;;;;5034851;28;20483;-78
2023/06/20 02:45:34;;;;;;;19.40;17.80;;;22.40;99.90;;;;;;5034734;28;21030;-79
2023/06/20 02:48:11;;;;;;;18.73;17.30;;;22.40;99.90;;;;;;5034230;28;20467;-78
2023/06/20 02:50:44;;;;;;;18.90;17.43;;;22.40;99.90;;;;;;5034215;28;20529;-79
2023/06/20 02:53:21;;;;;;;19.90;18.30;;;22.30;99.90;;;;;;5035154;28;20539;-78
2023/06/20 02:56:01;;;;;;;19.00;17.60;;;22.30;99.90;;;;;;5034021;28;20529;-77
2023/06/20 02:58:30;;;;;;;19.60;18.00;;;22.30;99.90;;;;;;5034107;28;20985;-78
2023/06/20 03:01:00;;;;;;;19.07;17.67;;;22.30;99.90;;;;;;5034493;28;20791;-78
2023/06/20 03:03:34;;;;;;;19.00;17.60;;;22.30;99.90;;;;;;5033983;28;20530;-77
2023/06/20 03:06:01;;;;;;;19.93;18.43;;;22.30;99.90;;;;;;5034083;28;20535;-77
2023/06/20 03:08:30;;;;;;;19.20;17.40;;;22.30;99.90;;;;;;5035933;28;20494;-78
2023/06/20 03:10:58;;;;;;;20.33;18.83;;;22.30;99.90;;;;;;5035066;28;20476;-78
2023/06/20 03:13:28;;;;;;;20.53;18.93;;;22.30;99.90;;;;;;5035413;28;20465;-77
2023/06/20 03:15:56;;;;;;;18.97;17.57;;;22.30;99.90;;;;;;5033904;28;20496;-77
2023/06/20 03:18:24;;;;;;;20.10;18.60;;;22.30;99.90;;;;;;5034891;28;20530;-78
2023/06/20 03:20:53;;;;;;;21.33;19.70;;;22.30;99.90;;;;;;5033546;28;20491;-77
2023/06/20 03:23:28;;;;;;;19.83;18.30;;;22.40;99.90;;;;;;5107760;27;20615;-77
2023/06/20 03:25:55;;;;;;;18.23;16.83;;;22.30;99.90;;;;;;5091337;28;20470;-75
2023/06/20 03:28:23;;;;;;;21.83;20.03;;;22.30;99.90;;;;;;5106863;28;20469;-78
2023/06/20 03:30:50;;;;;;;22.67;20.77;;;22.30;99.90;;;;;;5112328;28;20547;-76
2023/06/20 03:33:20;;;;;;;25.47;23.30;;;22.40;99.90;;;;;;5113225;28;20465;-76
2023/06/20 03:35:47;;;;;;;21.70;19.80;;;22.40;99.90;;;;;;5110724;28;20475;-77
2023/06/20 03:38:14;;;;;;;21.27;19.67;;;22.40;99.90;;;;;;5113495;28;21031;-76
2023/06/20 03:40:42;;;;;;;24.20;22.30;;;22.40;99.90;;;;;;5111293;28;20856;-76
2023/06/20 03:43:10;;;;;;;21.80;20.10;;;22.40;99.90;;;;;;5090196;28;20474;-76
2023/06/20 03:45:37;;;;;;;21.50;19.83;;;22.40;99.90;;;;;;5106020;28;20475;-76
2023/06/20 03:48:04;;;;;;;24.10;22.20;;;22.40;99.90;;;;;;5110490;28;20496;-77
2023/06/20 03:50:31;;;;;;;21.50;19.80;;;22.50;99.90;;;;;;5110804;28;20488;-76
2023/06/20 03:52:58;;;;;;;25.17;22.97;;;22.50;99.90;;;;;;5110648;28;20534;-77
2023/06/20 03:55:25;;;;;;;24.03;21.90;;;22.50;99.90;;;;;;5110187;28;20533;-76
2023/06/20 03:57:56;;;;;;;22.80;21.00;;;22.50;99.90;;;;;;5110214;28;20468;-76
2023/06/20 04:00:26;;;;;;;25.33;23.23;;;22.50;99.90;;;;;;5110833;28;20468;-76
2023/06/20 04:02:53;;;;;;;26.67;24.43;;;22.50;99.90;;;;;;5099073;28;20453;-78
2023/06/20 04:05:25;;;;;;;24.40;22.40;;;22.50;99.90;;;;;;5109995;28;20469;-76
2023/06/20 04:07:53;;;;;;;24.03;22.17;;;22.50;99.90;;;;;;5110261;28;20575;-78
2023/06/20 04:10:19;;;;;;;22.30;20.60;;;22.50;99.90;;;;;;5110618;28;20465;-76
2023/06/20 04:12:46;;;;;;;22.97;21.07;;;22.50;99.90;;;;;;5110781;28;20468;-77
2023/06/20 04:15:15;;;;;;;22.63;20.93;;;22.40;99.90;;;;;;5109735;28;20548;-77
2023/06/20 04:17:42;;;;;;;21.63;19.87;;;22.40;99.90;;;;;;5110356;28;20568;-78
2023/06/20 04:20:16;;;;;;;22.07;20.17;;;22.40;99.90;;;;;;5109515;28;20488;-78
2023/06/20 04:22:45;;;;;;;23.23;21.23;;;22.50;99.90;;;;;;5098143;28;20472;-78
2023/06/20 04:25:18;;;;;;;24.43;22.60;;;22.40;99.90;;;;;;5109714;28;20543;-75
2023/06/20 04:27:55;;;;;;;23.57;21.50;;;22.40;99.90;;;;;;5110237;28;20467;-75
2023/06/20 04:30:23;;;;;;;26.80;24.60;;;22.50;99.90;;;;;;5089603;28;20903;-76
2023/06/20 04:32:53;;;;;;;27.13;24.73;;;22.50;99.90;;;;;;5103506;28;20489;-76
2023/06/20 04:35:20;;;;;;;26.23;23.13;;;22.50;99.90;;;;;;5095430;28;20453;-76
2023/06/20 04:37:51;;;;;;;24.83;22.73;;;22.50;99.90;;;;;;5096379;28;20519;-77
2023/06/20 04:40:23;;;;;;;28.03;25.50;;;22.50;99.90;;;;;;5095235;28;20818;-77
2023/06/20 04:42:50;;;;;;;24.53;22.40;;;22.50;99.90;;;;;;5094474;28;20549;-78
2023/06/20 04:45:17;;;;;;;27.83;25.33;;;22.60;99.90;;;;;;5095476;28;20466;-78
2023/06/20 04:47:50;;;;;;;22.00;20.20;;;22.60;99.90;;;;;;5095978;28;20472;-76
2023/06/20 04:50:18;;;;;;;26.83;24.73;;;22.70;99.90;;;;;;5085083;28;20807;-78
2023/06/20 04:52:45;;;;;;;26.37;24.20;;;22.70;99.90;;;;;;5096120;28;20473;-78
2023/06/20 04:55:12;;;;;;;27.03;24.70;;;22.70;99.90;;;;;;5095643;28;20558;-78
2023/06/20 04:57:39;;;;;;;25.77;23.57;;;22.70;99.90;;;;;;5095902;28;20466;-78
2023/06/20 05:00:14;;;;;;;27.93;25.63;;;22.70;99.90;;;;;;5095500;28;20796;-78
2023/06/20 05:02:42;;;;;;;26.70;24.50;;;22.70;99.90;;;;;;5096138;28;20531;-77
2023/06/20 05:05:11;;;;;;;25.27;23.10;;;22.80;99.90;;;;;;5095730;28;20631;-75
2023/06/20 05:07:40;;;;;;;23.47;21.70;;;22.80;99.90;;;;;;5085029;28;20520;-75
2023/06/20 05:10:08;;;;;;;25.07;23.07;;;22.80;99.90;;;;;;5095126;28;20469;-78
2023/06/20 05:12:36;;;;;;;25.00;23.00;;;22.80;99.90;;;;;;5095638;28;20580;-75
2023/06/20 05:15:04;;;;;;;24.33;22.47;;;22.90;99.90;;;;;;5095927;28;20618;-77
2023/06/20 05:17:31;;;;;;;25.17;23.10;;;22.90;99.90;;;;;;5095308;28;20469;-76
2023/06/20 05:20:05;;;;;;;26.20;24.00;;;22.90;99.90;;;;;;5095178;28;20552;-76
2023/06/20 05:22:34;;;;;;;25.53;23.33;;;22.90;99.90;;;;;;5094653;28;20457;-77
2023/06/20 05:25:04;;;;;;;23.57;21.67;;;23.00;99.90;;;;;;5095416;28;20502;-78
2023/06/20 05:27:31;;;;;;;25.53;23.53;;;23.00;99.90;;;;;;5095368;28;20475;-78
2023/06/20 05:29:58;;;;;;;24.43;22.40;;;23.00;99.90;;;;;;5095250;28;20470;-77
2023/06/20 05:32:25;;;;;;;22.83;20.97;;;23.00;99.90;;;;;;5094531;28;20462;-76
2023/06/20 05:34:52;;;;;;;25.67;23.67;;;23.00;99.90;;;;;;5095200;28;20477;-76
2023/06/20 05:37:20;;;;;;;21.60;20.00;;;23.00;99.90;;;;;;5092598;28;20461;-77
2023/06/20 05:39:48;;;;;;;25.60;23.47;;;23.10;99.90;;;;;;5095133;28;20465;-79
2023/06/20 05:42:18;;;;;;;22.83;20.93;;;23.10;99.90;;;;;;5090858;28;20474;-78
2023/06/20 05:44:45;;;;;;;21.30;19.60;;;23.10;99.90;;;;;;5092565;28;20915;-78
2023/06/20 05:47:17;;;;;;;25.23;23.10;;;23.10;99.90;;;;;;5095055;28;20469;-78
2023/06/20 05:49:44;;;;;;;23.50;21.67;;;23.10;99.90;;;;;;5094420;28;20457;-77
2023/06/20 05:52:12;;;;;;;23.63;21.73;;;23.10;99.90;;;;;;5094768;28;20470;-75
2023/06/20 05:54:41;;;;;;;22.83;20.93;;;23.20;99.90;;;;;;5084292;28;20853;-76
2023/06/20 05:57:10;;;;;;;26.80;24.70;;;23.20;99.90;;;;;;5093974;28;20470;-77
2023/06/20 05:59:37;;;;;;;27.03;24.73;;;23.20;99.90;;;;;;5094023;28;20530;-76
2023/06/20 06:02:05;;;;;;;28.50;26.00;;;23.20;99.90;;;;;;5094567;28;20464;-76
2023/06/20 06:04:33;;;;;;;23.77;21.77;;;23.30;99.90;;;;;;5093866;28;20500;-78
2023/06/20 06:07:14;;;;;;;26.17;23.83;;;23.40;99.90;;;;;;5083537;28;20506;-76
2023/06/20 06:09:41;;;;;;;26.73;24.43;;;23.50;99.90;;;;;;5094293;28;20472;-77
2023/06/20 06:12:12;;;;;;;25.20;23.03;;;23.60;99.90;;;;;;5094067;28;20465;-76
2023/06/20 06:14:39;;;;;;;25.53;23.30;;;23.80;99.90;;;;;;5073462;28;20528;-75
2023/06/20 06:17:07;;;;;;;25.53;23.47;;;23.90;99.90;;;;;;5074234;28;20470;-75
2023/06/20 06:19:37;;;;;;;24.77;22.77;;;23.90;99.90;;;;;;5073715;28;20508;-75
2023/06/20 06:22:06;;;;;;;25.53;23.57;;;24.00;99.90;;;;;;5073952;28;20843;-76
2023/06/20 06:24:33;;;;;;;26.43;24.33;;;24.20;99.90;;;;;;5073532;28;20471;-76
2023/06/20 06:27:03;;;;;;;26.77;24.47;;;24.30;99.90;;;;;;5073250;28;20481;-78
2023/06/20 06:29:32;;;;;;;28.93;26.53;;;24.50;99.90;;;;;;5073432;28;20469;-76
2023/06/20 06:32:02;;;;;;;25.97;24.07;;;24.50;99.90;;;;;;5074068;28;20888;-76
2023/06/20 06:34:32;;;;;;;27.53;25.07;;;24.70;99.90;;;;;;5063568;28;20835;-76
2023/06/20 06:36:59;;;;;;;26.10;24.10;;;24.80;99.90;;;;;;5072943;28;20852;-77
2023/06/20 06:39:28;;;;;;;24.37;22.50;;;24.80;99.90;;;;;;5071720;28;20476;-78
2023/06/20 06:41:57;;;;;;;28.67;26.27;;;24.90;99.90;;;;;;5074140;28;20462;-78
2023/06/20 06:44:25;;;;;;;26.63;24.47;;;25.00;99.90;;;;;;5073198;28;20528;-78
2023/06/20 06:46:53;;;;;;;28.43;26.03;;;25.10;99.90;;;;;;5076068;28;20602;-77
2023/06/20 06:49:20;;;;;;;26.03;24.13;;;25.20;99.90;;;;;;5077799;28;20466;-76
2023/06/20 06:51:50;;;;;;;26.50;24.40;;;25.40;99.90;;;;;;5072168;28;20466;-76
2023/06/20 06:54:20;;;;;;;26.60;24.27;;;25.70;99.90;;;;;;5073029;28;20549;-78
2023/06/20 06:56:52;;;;;;;27.13;25.00;;;25.90;99.90;;;;;;5072688;28;20506;-76
2023/06/20 06:59:19;;;;;;;24.60;22.57;;;26.10;99.90;;;;;;5073256;28;21064;-78
2023/06/20 07:01:47;;;;;;;26.87;24.60;;;26.30;99.90;;;;;;5065147;28;20862;-78
2023/06/20 07:04:15;;;;;;;26.30;24.30;;;26.30;99.90;;;;;;5086292;28;20466;-76
2023/06/20 07:06:43;;;;;;;28.90;26.67;;;26.40;99.90;;;;;;5072840;28;20470;-77
2023/06/20 07:09:10;;;;;;;27.63;25.30;;;26.50;99.90;;;;;;5068189;28;20956;-78
2023/06/20 07:11:37;;;;;;;29.10;26.70;;;26.60;99.90;;;;;;5083749;28;20467;-78
2023/06/20 07:14:06;;;;;;;26.63;24.57;;;26.70;99.90;;;;;;5073524;28;20463;-77
2023/06/20 07:16:42;;;;;;;26.00;24.00;;;26.90;99.90;;;;;;5073197;28;20800;-76
2023/06/20 07:19:11;;;;;;;26.50;24.60;;;27.10;99.90;;;;;;5086825;28;20478;-78
2023/06/20 07:21:40;;;;;;;26.77;24.63;;;27.10;99.90;;;;;;5084349;28;20517;-77
2023/06/20 07:24:07;;;;;;;26.30;24.23;;;27.20;99.90;;;;;;5094012;28;20970;-78
2023/06/20 07:26:34;;;;;;;26.50;24.60;;;27.30;99.90;;;;;;5093055;28;20473;-77
2023/06/20 07:29:01;;;;;;;28.47;26.17;;;27.20;99.90;;;;;;5093923;28;20462;-78
2023/06/20 07:31:31;;;;;;;25.60;23.73;;;27.20;99.90;;;;;;5083574;28;20472;-78
2023/06/20 07:33:59;;;;;;;25.60;23.63;;;27.20;99.90;;;;;;5093097;28;20468;-77
2023/06/20 07:36:26;;;;;;;26.60;24.50;;;27.20;99.90;;;;;;5092367;28;20471;-77
2023/06/20 07:38:57;;;;;;;26.40;24.37;;;27.20;99.90;;;;;;5093659;28;20485;-78
2023/06/20 07:41:25;;;;;;;26.43;24.40;;;27.10;99.90;;;;;;5094111;28;20471;-77
2023/06/20 07:43:52;;;;;;;27.40;25.30;;;27.10;99.90;;;;;;5092974;28;20476;-78
2023/06/20 07:46:19;;;;;;;40.00;36.80;;;27.10;99.90;;;;;;5092349;28;20478;-78
2023/06/20 07:48:47;;;;;;;33.60;31.03;;;27.10;99.90;;;;;;5092851;28;20465;-78
2023/06/20 07:51:16;;;;;;;30.87;28.53;;;27.00;99.90;;;;;;5093306;28;20467;-77
2023/06/20 07:53:43;;;;;;;28.60;26.47;;;26.90;99.90;;;;;;5092995;28;20505;-76
2023/06/20 07:56:12;;;;;;;29.07;26.97;;;26.90;99.90;;;;;;5093801;28;20513;-76
2023/06/20 07:58:41;;;;;;;27.90;25.80;;;26.80;99.90;;;;;;5093283;28;20462;-78
2023/06/20 08:01:08;;;;;;;32.93;30.57;;;26.80;99.90;;;;;;5094036;28;20869;-79
2023/06/20 08:03:37;;;;;;;31.07;28.57;;;26.70;99.90;;;;;;5093274;28;20481;-80
2023/06/20 08:06:04;;;;;;;30.50;28.00;;;26.70;99.90;;;;;;5084198;28;20477;-77
2023/06/20 08:08:31;;;;;;;27.67;25.57;;;26.70;99.90;;;;;;5093997;28;20461;-79
2023/06/20 08:10:58;;;;;;;25.80;23.60;;;26.70;99.90;;;;;;5097073;28;21014;-77
2023/06/20 08:13:29;;;;;;;26.00;24.00;;;26.70;99.90;;;;;;5096122;28;20955;-76
2023/06/20 08:15:56;;;;;;;25.30;23.50;;;26.80;99.90;;;;;;5096674;28;20951;-78
2023/06/20 08:18:24;;;;;;;26.70;24.70;;;26.80;99.90;;;;;;5096049;28;20480;-77
2023/06/20 08:20:51;;;;;;;31.90;29.20;;;26.80;99.90;;;;;;5095438;28;20491;-79
2023/06/20 08:23:24;;;;;;;26.37;24.37;;;26.80;99.90;;;;;;5096244;28;20473;-77
2023/06/20 08:25:52;;;;;;;25.80;23.90;;;26.80;99.90;;;;;;5096529;28;20457;-78
2023/06/20 08:28:19;;;;;;;27.37;25.37;;;26.80;99.90;;;;;;5097488;28;20989;-79
2023/06/20 08:30:50;;;;;;;27.20;25.07;;;26.80;99.90;;;;;;5096076;28;20812;-76
2023/06/20 08:33:19;;;;;;;26.00;24.10;;;26.90;99.90;;;;;;5096942;28;20949;-76
2023/06/20 08:35:49;;;;;;;29.90;27.23;;;26.80;99.90;;;;;;5096712;28;20496;-79
2023/06/20 08:38:21;;;;;;;29.97;27.03;;;26.80;99.90;;;;;;5095765;28;20466;-78
2023/06/20 08:40:48;;;;;;;26.10;24.10;;;26.80;99.90;;;;;;5083908;28;20466;-78
2023/06/20 08:43:23;;;;;;;25.57;23.50;;;26.80;99.90;;;;;;5096263;28;20475;-79
2023/06/20 08:45:55;;;;;;;27.83;25.40;;;26.80;99.90;;;;;;5095935;28;20513;-75
2023/06/20 08:48:23;;;;;;;28.53;26.20;;;26.80;99.90;;;;;;5096543;28;20854;-77
2023/06/20 08:50:52;;;;;;;27.27;25.27;;;26.80;99.90;;;;;;5076502;28;20501;-77
2023/06/20 08:53:24;;;;;;;32.13;29.63;;;26.80;99.90;;;;;;5095773;28;20489;-77
2023/06/20 08:55:52;;;;;;;33.03;30.30;;;26.80;99.90;;;;;;5086682;28;20465;-77
2023/06/20 08:58:20;;;;;;;37.47;34.33;;;26.80;99.90;;;;;;5096107;28;20461;-76
2023/06/20 09:00:58;;;;;;;34.40;31.70;;;26.80;99.90;;;;;;5084276;28;20807;-77
2023/06/20 09:03:25;;;;;;;34.53;31.67;;;26.80;99.90;;;;;;5095252;28;20860;-77
2023/06/20 09:05:57;;;;;;;31.77;29.27;;;26.70;99.90;;;;;;5084741;28;20911;-78
2023/06/20 09:08:24;;;;;;;29.90;27.60;;;26.70;99.90;;;;;;5095314;28;20929;-78
2023/06/20 09:11:09;;;;;;;29.03;26.73;;;26.70;99.90;;;;;;5095802;28;20889;-77
2023/06/20 09:13:37;;;;;;;29.17;26.50;;;26.60;99.90;;;;;;5088171;28;20469;-78
2023/06/20 09:16:10;;;;;;;30.30;27.77;;;26.60;99.90;;;;;;5053930;28;20812;-76
2023/06/20 09:18:40;;;;;;;28.83;26.63;;;26.50;99.90;;;;;;5050689;28;20483;-77
2023/06/20 09:21:15;;;;;;;28.73;26.23;;;26.40;99.90;;;;;;5064954;28;20819;-77
2023/06/20 09:23:42;;;;;;;28.73;26.57;;;26.40;99.90;;;;;;5068040;28;20538;-78
2023/06/20 09:26:16;;;;;;;26.30;24.30;;;26.40;99.90;;;;;;5054404;28;20839;-78
2023/06/20 09:28:44;;;;;;;29.23;26.90;;;26.30;99.90;;;;;;5053424;28;20535;-77
2023/06/20 09:31:14;;;;;;;27.57;25.20;;;26.30;99.90;;;;;;5047725;28;20467;-77
2023/06/20 09:33:46;;;;;;;25.00;22.90;;;26.20;99.90;;;;;;5062259;28;20479;-79
2023/06/20 09:36:15;;;;;;;24.87;22.77;;;26.20;99.90;;;;;;5061019;28;20566;-77
2023/06/20 09:38:44;;;;;;;27.97;25.47;;;26.20;99.90;;;;;;5074844;28;20474;-76
2023/06/20 09:41:18;;;;;;;27.20;25.07;;;26.00;99.90;;;;;;5074590;28;20525;-78
2023/06/20 09:43:46;;;;;;;26.47;24.57;;;26.00;99.90;;;;;;5062034;28;20482;-78
2023/06/20 09:46:15;;;;;;;28.43;26.30;;;25.90;99.90;;;;;;5064355;28;20961;-78
2023/06/20 09:48:46;;;;;;;32.60;29.83;;;25.80;99.90;;;;;;5055145;28;20466;-77
2023/06/20 09:51:19;;;;;;;34.37;31.20;;;25.80;99.90;;;;;;5053560;28;20467;-76
2023/06/20 09:53:57;;;;;;;38.30;35.10;;;25.60;99.90;;;;;;5064795;28;20458;-76
2023/06/20 09:56:39;;;;;;;37.97;34.83;;;25.40;99.90;;;;;;5053736;28;20575;-75
2023/06/20 09:59:38;;;;;;;;;;;;;;;;;;;;;
2023/06/20 10:02:29;;;;;;;34.03;31.00;;;25.10;99.90;;;;;;5050980;28;20481;-77
2023/06/20 10:05:17;;;;;;;35.77;32.53;;;24.90;99.90;;;;;;5067127;28;20554;-76
2023/06/20 10:10:50;;;;;;;32.57;29.97;;;24.60;99.90;;;;;;5047996;28;20985;-75
2023/06/20 10:13:31;;;;;;;31.10;28.53;;;24.40;99.90;;;;;;5064543;28;20465;-76
2023/06/20 10:16:05;;;;;;;33.33;30.50;;;24.30;99.90;;;;;;5042078;28;20559;-75
2023/06/20 10:18:41;;;;;;;32.43;29.80;;;24.20;99.90;;;;;;5065373;28;20465;-75
2023/06/20 10:21:59;;;;;;;34.50;31.60;;;24.10;99.90;;;;;;5069331;28;20477;-75
2023/06/20 10:24:36;;;;;;;32.77;29.57;;;24.00;99.90;;;;;;5052957;28;20516;-75
2023/06/20 10:27:12;;;;;;;33.20;30.10;;;23.80;99.90;;;;;;5050823;28;20581;-75
2023/06/20 10:29:53;;;;;;;31.87;29.20;;;23.80;99.90;;;;;;5071803;28;20464;-75
2023/06/20 10:32:43;;;;;;;34.87;31.90;;;23.60;99.90;;;;;;5086841;28;20475;-76
2023/06/20 10:35:36;;;;;;;32.60;29.77;;;23.50;99.90;;;;;;5069019;28;20490;-75
2023/06/20 10:38:21;;;;;;;34.27;31.47;;;23.50;99.90;;;;;;5088278;28;20566;-76
2023/06/20 10:41:08;;;;;;;33.90;30.63;;;23.40;99.90;;;;;;5080979;28;20473;-76
2023/06/20 10:44:01;;;;;;;34.20;31.20;;;23.30;99.90;;;;;;5050778;28;20482;-76
2023/06/20 10:46:47;;;;;;;36.00;33.00;;;23.20;99.90;;;;;;5081831;28;21039;-75
2023/06/20 10:49:50;;;;;;;32.63;29.70;;;23.10;99.90;;;;;;5078232;28;20573;-77
2023/06/20 10:52:38;;;;;;;36.00;32.90;;;23.10;99.90;;;;;;5044322;28;20477;-76
2023/06/20 11:04:13;;;;;;;;;;;;;;;;;;;;;
2023/06/20 11:07:04;;;;;;;42.87;39.27;;;22.80;99.90;;;;;;4976684;28;20481;-76
2023/06/20 11:10:12;;;;;;;41.00;37.40;;;22.80;99.90;;;;;;4985753;28;20782;-76
2023/06/20 11:15:47;;;;;;;41.50;38.10;;;22.80;99.90;;;;;;5041079;28;20814;-77
2023/06/20 11:18:18;;;;;;;36.17;33.30;;;22.70;99.90;;;;;;5060119;28;20469;-77
2023/06/20 11:20:58;;;;;;;40.63;37.07;;;22.80;99.90;;;;;;5054983;28;20461;-77
2023/06/20 11:23:54;;;;;;;41.60;37.83;;;22.70;99.90;;;;;;5087977;28;20818;-76
2023/06/20 11:27:00;;;;;;;36.73;33.57;;;22.70;99.90;;;;;;5089359;28;20495;-77
2023/06/20 11:29:58;;;;;;;33.80;31.07;;;22.70;99.90;;;;;;5080914;28;20927;-77
2023/06/20 11:32:42;;;;;;;38.43;35.33;;;22.80;99.90;;;;;;5074499;28;20473;-77
2023/06/20 11:35:10;;;;;;;34.93;32.20;;;22.80;99.90;;;;;;5092378;28;20474;-78
2023/06/20 11:37:37;;;;;;;41.27;37.77;;;22.80;99.90;;;;;;5073017;28;20804;-77
2023/06/20 11:40:12;;;;;;;34.90;32.13;;;22.80;99.90;;;;;;5079052;28;20469;-75
2023/06/20 11:42:41;;;;;;;41.60;38.10;;;22.80;99.90;;;;;;5079952;28;20947;-77
2023/06/20 11:45:09;;;;;;;38.83;35.63;;;22.80;99.90;;;;;;5091199;28;20473;-77
2023/06/20 11:47:36;;;;;;;37.17;34.20;;;22.90;99.90;;;;;;5093935;28;20564;-77
2023/06/20 11:50:04;;;;;;;36.93;34.00;;;22.90;99.90;;;;;;5095855;28;20752;-76
2023/06/20 11:52:44;;;;;;;41.43;38.10;;;23.00;99.90;;;;;;5092309;28;20526;-78
2023/06/20 11:55:13;;;;;;;38.67;35.47;;;23.00;99.90;;;;;;5091416;28;20468;-78
2023/06/20 11:57:43;;;;;;;38.60;35.47;;;23.00;99.90;;;;;;5075577;28;20477;-78
2023/06/20 12:00:17;;;;;;;38.10;34.80;;;23.10;99.90;;;;;;5073692;28;21227;-77
2023/06/20 12:02:46;;;;;;;37.80;34.50;;;23.10;99.90;;;;;;5090305;28;20468;-76
2023/06/20 12:05:18;;;;;;;40.10;36.70;;;23.20;99.90;;;;;;5086406;28;20914;-77
2023/06/20 12:07:52;;;;;;;35.97;32.90;;;23.20;99.90;;;;;;5091807;28;20971;-79
2023/06/20 12:10:24;;;;;;;33.10;30.20;;;23.30;99.90;;;;;;5088765;28;20555;-76
2023/06/20 12:12:53;;;;;;;35.93;32.80;;;23.40;99.90;;;;;;5095542;28;20477;-77
2023/06/20 12:15:22;;;;;;;35.27;32.50;;;23.40;99.90;;;;;;5094917;28;21029;-78
2023/06/20 12:17:49;;;;;;;34.50;31.60;;;23.50;99.90;;;;;;5091366;28;21536;-77
2023/06/20 12:20:19;;;;;;;33.30;30.40;;;23.50;99.90;;;;;;5094609;28;21318;-77
2023/06/20 12:22:47;;;;;;;32.83;30.23;;;23.60;99.90;;;;;;5098578;28;20469;-77
2023/06/20 12:25:17;;;;;;;37.03;33.83;;;23.70;99.90;;;;;;5094246;28;20476;-77
2023/06/20 12:27:44;;;;;;;31.80;29.30;;;23.80;99.90;;;;;;5094550;28;20477;-77
2023/06/20 12:30:14;;;;;;;33.63;30.97;;;23.90;99.90;;;;;;5087199;28;21132;-77
2023/06/20 12:32:42;;;;;;;35.57;32.67;;;23.90;99.90;;;;;;5092247;28;20465;-78
2023/06/20 12:35:09;;;;;;;35.07;32.27;;;24.00;99.90;;;;;;5097070;28;21217;-76
2023/06/20 12:37:39;;;;;;;31.57;29.00;;;24.20;99.90;;;;;;5096093;28;20476;-78
2023/06/20 12:40:07;;;;;;;32.67;30.13;;;24.20;99.90;;;;;;5091641;28;20484;-75
2023/06/20 12:42:35;;;;;;;30.53;28.10;;;24.30;99.90;;;;;;5096415;28;20469;-76
2023/06/20 12:45:02;;;;;;;31.40;28.80;;;24.50;99.90;;;;;;5090848;28;20461;-78
2023/06/20 12:47:30;;;;;;;32.80;30.10;;;24.50;99.90;;;;;;5080422;28;20485;-78
2023/06/20 12:50:01;;;;;;;32.20;29.70;;;24.60;99.90;;;;;;5060698;28;20463;-76
2023/06/20 12:52:29;;;;;;;28.33;26.00;;;24.60;99.90;;;;;;5085263;28;20521;-76
2023/06/20 12:54:58;;;;;;;30.50;27.93;;;24.60;99.90;;;;;;5087450;28;20519;-77
2023/06/20 12:57:27;;;;;;;31.33;28.90;;;24.70;99.90;;;;;;5083718;28;20855;-77
2023/06/20 12:59:54;;;;;;;29.03;26.67;;;24.70;99.90;;;;;;5089633;28;21958;-77
2023/06/20 13:02:26;;;;;;;30.77;28.40;;;24.80;99.90;;;;;;5088610;28;20517;-76